Yang Li Hu — BOGE — position and weather

sailwx.info

Track history (hours):
 
Tides and Currents Weather Stations Pressure Air Temp Water Temp Dewpoint Dewpoint Depression Visibility Wind Speed Wind Dir Waves Ship Positions

Yang Li Hu

Last reported at 2017-Aug-07 04:45 UTC. Time now 2017-Aug-21 04:30 UTC.
Position N 34°52' E 139°38'.
Warning: this ship's position is 13 days out of date.

Length 244 m; draft 11.5 m.

Type: Tanker. MMSI: 413975000.

Date/timePositionNaut miles runAvg speedWind from/ knotsBaromVisibWave heightAir tempDewpointWater temp
2017-Aug-07 04:45N 34°52' E 139°38'612.8
2017-Aug-07 04:15N 34°59' E 139°39'313.2
2017-Aug-07 04:01N 35°02' E 139°41'713.1
2017-Aug-07 03:31N 35°07' E 139°45'510.9
2017-Aug-07 03:00N 35°13' E 139°46'611.2
2017-Aug-07 02:31N 35°18' E 139°44'611.9
2017-Aug-07 02:01N 35°24' E 139°43'612.6
2017-Aug-07 01:31N 35°28' E 139°49'611.9
2017-Aug-07 01:01N 35°31' E 139°55'4 8.3
2017-Aug-07 00:30N 35°31' E 140°00'2 0.0
2017-Aug-05 02:43N 35°30' E 140°01'0 0.2
2017-Aug-05 02:30N 35°30' E 140°01'0 0.9
2017-Aug-05 02:00N 35°30' E 140°01'3 6.3
2017-Aug-05 01:30N 35°32' E 139°58'1 1.3
2017-Aug-05 00:48N 35°33' E 139°57'0 0.2
2017-Aug-05 00:28N 35°33' E 139°57'0 0.0
2017-Aug-05 00:01N 35°33' E 139°57'2 3.7
2017-Aug-04 23:30N 35°32' E 139°56'510.0
2017-Aug-04 23:00N 35°28' E 139°51'611.7
2017-Aug-04 22:30N 35°24' E 139°46'611.3
2017-Aug-04 22:01N 35°19' E 139°44'610.9
2017-Aug-04 21:30N 35°14' E 139°47'5 9.9
2017-Aug-04 21:00N 35°09' E 139°46'4 7.1
2017-Aug-04 20:30N 35°05' E 139°44'3 6.1
2017-Aug-04 20:00N 35°03' E 139°41'3 6.7
2017-Aug-04 19:30N 35°01' E 139°38'4 8.1
2017-Aug-04 18:59N 34°58' E 139°35'4 7.9
2017-Aug-04 18:29N 34°55' E 139°32'1 1.5
2017-Aug-04 17:57N 34°55' E 139°31'4 6.4
2017-Aug-04 17:17N 34°54' E 139°36'7 7.6
2017-Aug-04 16:22N 34°52' E 139°28'  
Track history (hours):
 
Tides and Currents Weather Stations Pressure Air Temp Water Temp Dewpoint Dewpoint Depression Visibility Wind Speed Wind Dir Waves Ship Positions

Yang Li Hu

Last reported at 2017-Aug-07 04:45 UTC. Time now 2017-Aug-21 04:30 UTC.
Position N 34°52' E 139°38'.
Warning: this ship's position is 13 days out of date.

Length 244 m; draft 11.5 m.

Type: Tanker. MMSI: 413975000.

Date/timePositionNaut miles runAvg speedWind from/ knotsBaromVisibWave heightAir tempDewpointWater temp
2017-Aug-07 04:45N 34°52' E 139°38'612.8
2017-Aug-07 04:15N 34°59' E 139°39'313.2
2017-Aug-07 04:01N 35°02' E 139°41'713.1
2017-Aug-07 03:31N 35°07' E 139°45'510.9
2017-Aug-07 03:00N 35°13' E 139°46'611.2
2017-Aug-07 02:31N 35°18' E 139°44'611.9
2017-Aug-07 02:01N 35°24' E 139°43'612.6
2017-Aug-07 01:31N 35°28' E 139°49'611.9
2017-Aug-07 01:01N 35°31' E 139°55'4 8.3
2017-Aug-07 00:30N 35°31' E 140°00'2 0.0
2017-Aug-05 02:43N 35°30' E 140°01'0 0.2
2017-Aug-05 02:30N 35°30' E 140°01'0 0.9
2017-Aug-05 02:00N 35°30' E 140°01'3 6.3
2017-Aug-05 01:30N 35°32' E 139°58'1 1.3
2017-Aug-05 00:48N 35°33' E 139°57'0 0.2
2017-Aug-05 00:28N 35°33' E 139°57'0 0.0
2017-Aug-05 00:01N 35°33' E 139°57'2 3.7
2017-Aug-04 23:30N 35°32' E 139°56'510.0
2017-Aug-04 23:00N 35°28' E 139°51'611.7
2017-Aug-04 22:30N 35°24' E 139°46'611.3
2017-Aug-04 22:01N 35°19' E 139°44'610.9
2017-Aug-04 21:30N 35°14' E 139°47'5 9.9
2017-Aug-04 21:00N 35°09' E 139°46'4 7.1
2017-Aug-04 20:30N 35°05' E 139°44'3 6.1
2017-Aug-04 20:00N 35°03' E 139°41'3 6.7
2017-Aug-04 19:30N 35°01' E 139°38'4 8.1
2017-Aug-04 18:59N 34°58' E 139°35'4 7.9
2017-Aug-04 18:29N 34°55' E 139°32'1 1.5
2017-Aug-04 17:57N 34°55' E 139°31'4 6.4
2017-Aug-04 17:17N 34°54' E 139°36'7 7.6
2017-Aug-04 16:22N 34°52' E 139°28'  

Dump ship's entire track history